sensor_id;sensor_type;location;lat;lon;timestamp;P1;durP1;ratioP1;P2;durP2;ratioP2
61399;SDS011;47269;48.182;-1.946;2024-01-30T06:00:40;0.13;;;0.13;;
61399;SDS011;47269;48.182;-1.946;2024-01-30T06:03:06;0.00;;;0.00;;
61399;SDS011;47269;48.182;-1.946;2024-01-30T06:05:32;0.00;;;0.00;;
61399;SDS011;47269;48.182;-1.946;2024-01-30T06:07:58;0.63;;;0.63;;
61399;SDS011;47269;48.182;-1.946;2024-01-30T06:10:24;0.00;;;0.00;;
61399;SDS011;47269;48.182;-1.946;2024-01-30T06:12:50;0.00;;;0.00;;
61399;SDS011;47269;48.182;-1.946;2024-01-30T06:15:16;0.00;;;0.00;;
61399;SDS011;47269;48.182;-1.946;2024-01-30T06:17:42;0.00;;;0.00;;
61399;SDS011;47269;48.182;-1.946;2024-01-30T06:20:08;0.10;;;0.10;;
61399;SDS011;47269;48.182;-1.946;2024-01-30T06:22:34;0.70;;;0.55;;
61399;SDS011;47269;48.182;-1.946;2024-01-30T06:25:00;1.38;;;1.38;;
61399;SDS011;47269;48.182;-1.946;2024-01-30T06:27:26;0.00;;;0.00;;
61399;SDS011;47269;48.182;-1.946;2024-01-30T06:29:52;0.10;;;0.10;;
61399;SDS011;47269;48.182;-1.946;2024-01-30T06:32:18;0.00;;;0.00;;
61399;SDS011;47269;48.182;-1.946;2024-01-30T06:34:44;0.00;;;0.00;;
61399;SDS011;47269;48.182;-1.946;2024-01-30T06:37:10;0.00;;;0.00;;
61399;SDS011;47269;48.182;-1.946;2024-01-30T06:39:36;0.00;;;0.00;;
61399;SDS011;47269;48.182;-1.946;2024-01-30T06:42:02;0.55;;;0.55;;
61399;SDS011;47269;48.182;-1.946;2024-01-30T06:44:28;0.00;;;0.00;;
61399;SDS011;47269;48.182;-1.946;2024-01-30T06:46:54;0.17;;;0.17;;
61399;SDS011;47269;48.182;-1.946;2024-01-30T06:49:20;0.10;;;0.10;;
61399;SDS011;47269;48.182;-1.946;2024-01-30T06:51:47;0.00;;;0.00;;
61399;SDS011;47269;48.182;-1.946;2024-01-30T06:54:13;0.15;;;0.15;;
61399;SDS011;47269;48.182;-1.946;2024-01-30T06:56:39;0.00;;;0.00;;
61399;SDS011;47269;48.182;-1.946;2024-01-30T06:59:05;0.00;;;0.00;;
61399;SDS011;47269;48.182;-1.946;2024-01-30T07:01:31;0.00;;;0.00;;
61399;SDS011;47269;48.182;-1.946;2024-01-30T07:03:57;0.08;;;0.08;;
61399;SDS011;47269;48.182;-1.946;2024-01-30T07:06:24;0.00;;;0.00;;
61399;SDS011;47269;48.182;-1.946;2024-01-30T07:08:50;0.00;;;0.00;;
61399;SDS011;47269;48.182;-1.946;2024-01-30T07:11:19;0.00;;;0.00;;
61399;SDS011;47269;48.182;-1.946;2024-01-30T07:13:50;0.47;;;0.47;;
61399;SDS011;47269;48.182;-1.946;2024-01-30T07:16:16;1.38;;;1.38;;
61399;SDS011;47269;48.182;-1.946;2024-01-30T07:18:43;0.00;;;0.00;;
61399;SDS011;47269;48.182;-1.946;2024-01-30T07:21:09;0.00;;;0.00;;
61399;SDS011;47269;48.182;-1.946;2024-01-30T07:23:35;0.20;;;0.20;;
61399;SDS011;47269;48.182;-1.946;2024-01-30T07:26:04;0.00;;;0.00;;
61399;SDS011;47269;48.182;-1.946;2024-01-30T07:28:31;0.00;;;0.00;;
61399;SDS011;47269;48.182;-1.946;2024-01-30T07:30:58;1.08;;;0.90;;
61399;SDS011;47269;48.182;-1.946;2024-01-30T07:33:24;0.00;;;0.00;;
61399;SDS011;47269;48.182;-1.946;2024-01-30T07:35:51;0.17;;;0.17;;
61399;SDS011;47269;48.182;-1.946;2024-01-30T07:38:18;1.13;;;0.98;;
61399;SDS011;47269;48.182;-1.946;2024-01-30T07:40:44;3.17;;;1.38;;
61399;SDS011;47269;48.182;-1.946;2024-01-30T07:43:10;0.00;;;0.00;;
61399;SDS011;47269;48.182;-1.946;2024-01-30T07:45:36;0.00;;;0.00;;
61399;SDS011;47269;48.182;-1.946;2024-01-30T07:48:03;0.38;;;0.38;;
61399;SDS011;47269;48.182;-1.946;2024-01-30T07:50:29;0.32;;;0.32;;
61399;SDS011;47269;48.182;-1.946;2024-01-30T07:52:55;0.20;;;0.20;;
61399;SDS011;47269;48.182;-1.946;2024-01-30T07:55:22;0.30;;;0.30;;
61399;SDS011;47269;48.182;-1.946;2024-01-30T07:57:51;2.78;;;2.22;;
61399;SDS011;47269;48.182;-1.946;2024-01-30T08:00:18;1.85;;;1.75;;
61399;SDS011;47269;48.182;-1.946;2024-01-30T08:02:45;0.52;;;0.52;;
61399;SDS011;47269;48.182;-1.946;2024-01-30T08:05:19;2.22;;;2.10;;
61399;SDS011;47269;48.182;-1.946;2024-01-30T08:07:47;0.17;;;0.17;;
61399;SDS011;47269;48.182;-1.946;2024-01-30T08:10:14;1.00;;;1.00;;
61399;SDS011;47269;48.182;-1.946;2024-01-30T08:12:40;0.65;;;0.65;;
61399;SDS011;47269;48.182;-1.946;2024-01-30T08:15:06;0.52;;;0.40;;
61399;SDS011;47269;48.182;-1.946;2024-01-30T08:17:32;0.43;;;0.43;;
61399;SDS011;47269;48.182;-1.946;2024-01-30T08:19:58;0.00;;;0.00;;
61399;SDS011;47269;48.182;-1.946;2024-01-30T08:22:24;0.10;;;0.10;;
61399;SDS011;47269;48.182;-1.946;2024-01-30T08:24:50;0.20;;;0.20;;
61399;SDS011;47269;48.182;-1.946;2024-01-30T08:27:17;0.00;;;0.00;;
61399;SDS011;47269;48.182;-1.946;2024-01-30T08:29:43;0.30;;;0.30;;
61399;SDS011;47269;48.182;-1.946;2024-01-30T08:32:09;0.75;;;0.75;;
61399;SDS011;47269;48.182;-1.946;2024-01-30T08:34:35;0.85;;;0.60;;
61399;SDS011;47269;48.182;-1.946;2024-01-30T08:37:01;0.00;;;0.00;;
61399;SDS011;47269;48.182;-1.946;2024-01-30T08:39:27;0.00;;;0.00;;
61399;SDS011;47269;48.182;-1.946;2024-01-30T08:41:53;1.00;;;0.95;;
61399;SDS011;47269;48.182;-1.946;2024-01-30T08:44:19;13.88;;;2.30;;
61399;SDS011;47269;48.182;-1.946;2024-01-30T08:46:45;2.47;;;2.30;;
61399;SDS011;47269;48.182;-1.946;2024-01-30T08:49:11;0.20;;;0.20;;
61399;SDS011;47269;48.182;-1.946;2024-01-30T08:51:40;0.20;;;0.20;;
61399;SDS011;47269;48.182;-1.946;2024-01-30T08:54:06;2.10;;;1.23;;
61399;SDS011;47269;48.182;-1.946;2024-01-30T08:56:32;1.65;;;1.55;;
61399;SDS011;47269;48.182;-1.946;2024-01-30T08:58:58;0.45;;;0.45;;
61399;SDS011;47269;48.182;-1.946;2024-01-30T09:01:25;1.30;;;1.20;;
61399;SDS011;47269;48.182;-1.946;2024-01-30T09:03:51;0.00;;;0.00;;
61399;SDS011;47269;48.182;-1.946;2024-01-30T09:06:17;0.00;;;0.00;;
61399;SDS011;47269;48.182;-1.946;2024-01-30T09:08:43;0.20;;;0.20;;
61399;SDS011;47269;48.182;-1.946;2024-01-30T09:11:11;0.10;;;0.10;;
61399;SDS011;47269;48.182;-1.946;2024-01-30T09:13:37;3.53;;;3.33;;
61399;SDS011;47269;48.182;-1.946;2024-01-30T09:16:03;1.95;;;0.55;;
61399;SDS011;47269;48.182;-1.946;2024-01-30T09:18:29;0.10;;;0.10;;
61399;SDS011;47269;48.182;-1.946;2024-01-30T09:20:55;0.77;;;0.35;;
61399;SDS011;47269;48.182;-1.946;2024-01-30T09:23:21;0.00;;;0.00;;
61399;SDS011;47269;48.182;-1.946;2024-01-30T09:25:47;1.13;;;0.30;;
61399;SDS011;47269;48.182;-1.946;2024-01-30T09:28:13;0.00;;;0.00;;
61399;SDS011;47269;48.182;-1.946;2024-01-30T09:30:39;0.10;;;0.10;;
61399;SDS011;47269;48.182;-1.946;2024-01-30T09:33:06;0.00;;;0.00;;
61399;SDS011;47269;48.182;-1.946;2024-01-30T09:35:32;0.10;;;0.10;;
61399;SDS011;47269;48.182;-1.946;2024-01-30T09:37:58;0.00;;;0.00;;
61399;SDS011;47269;48.182;-1.946;2024-01-30T09:40:25;2.17;;;1.27;;
61399;SDS011;47269;48.182;-1.946;2024-01-30T09:42:51;0.10;;;0.10;;
61399;SDS011;47269;48.182;-1.946;2024-01-30T09:45:18;0.45;;;0.30;;
61399;SDS011;47269;48.182;-1.946;2024-01-30T09:47:45;0.00;;;0.00;;
61399;SDS011;47269;48.182;-1.946;2024-01-30T09:50:14;0.00;;;0.00;;
61399;SDS011;47269;48.182;-1.946;2024-01-30T09:52:40;0.28;;;0.28;;
61399;SDS011;47269;48.182;-1.946;2024-01-30T09:55:08;0.38;;;0.25;;
61399;SDS011;47269;48.182;-1.946;2024-01-30T09:57:34;0.00;;;0.00;;
61399;SDS011;47269;48.182;-1.946;2024-01-30T10:00:06;0.05;;;0.05;;
61399;SDS011;47269;48.182;-1.946;2024-01-30T10:02:33;1.00;;;0.73;;
61399;SDS011;47269;48.182;-1.946;2024-01-30T10:04:59;0.00;;;0.00;;
61399;SDS011;47269;48.182;-1.946;2024-01-30T10:07:26;0.65;;;0.65;;
61399;SDS011;47269;48.182;-1.946;2024-01-30T10:09:52;0.00;;;0.00;;
61399;SDS011;47269;48.182;-1.946;2024-01-30T10:12:20;0.00;;;0.00;;
61399;SDS011;47269;48.182;-1.946;2024-01-30T10:14:46;0.17;;;0.15;;
61399;SDS011;47269;48.182;-1.946;2024-01-30T10:17:12;0.00;;;0.00;;
61399;SDS011;47269;48.182;-1.946;2024-01-30T10:19:39;0.00;;;0.00;;
61399;SDS011;47269;48.182;-1.946;2024-01-30T10:22:05;1.05;;;0.98;;
61399;SDS011;47269;48.182;-1.946;2024-01-30T10:24:33;0.00;;;0.00;;
61399;SDS011;47269;48.182;-1.946;2024-01-30T10:27:00;0.00;;;0.00;;
61399;SDS011;47269;48.182;-1.946;2024-01-30T10:29:27;0.20;;;0.20;;
61399;SDS011;47269;48.182;-1.946;2024-01-30T10:32:03;0.20;;;0.20;;
61399;SDS011;47269;48.182;-1.946;2024-01-30T10:34:29;0.00;;;0.00;;
61399;SDS011;47269;48.182;-1.946;2024-01-30T10:36:59;0.03;;;0.03;;
61399;SDS011;47269;48.182;-1.946;2024-01-30T10:39:27;2.20;;;2.10;;
61399;SDS011;47269;48.182;-1.946;2024-01-30T10:41:56;0.00;;;0.00;;
61399;SDS011;47269;48.182;-1.946;2024-01-30T10:44:23;0.00;;;0.00;;
61399;SDS011;47269;48.182;-1.946;2024-01-30T10:46:51;0.00;;;0.00;;
61399;SDS011;47269;48.182;-1.946;2024-01-30T10:49:21;0.03;;;0.03;;
61399;SDS011;47269;48.182;-1.946;2024-01-30T10:51:47;0.10;;;0.10;;
61399;SDS011;47269;48.182;-1.946;2024-01-30T10:54:14;0.00;;;0.00;;
61399;SDS011;47269;48.182;-1.946;2024-01-30T10:56:41;0.00;;;0.00;;
61399;SDS011;47269;48.182;-1.946;2024-01-30T10:59:08;0.03;;;0.03;;
61399;SDS011;47269;48.182;-1.946;2024-01-30T11:01:35;0.00;;;0.00;;
61399;SDS011;47269;48.182;-1.946;2024-01-30T11:04:01;0.00;;;0.00;;
61399;SDS011;47269;48.182;-1.946;2024-01-30T11:06:27;0.00;;;0.00;;
61399;SDS011;47269;48.182;-1.946;2024-01-30T11:09:03;0.10;;;0.10;;
61399;SDS011;47269;48.182;-1.946;2024-01-30T11:11:32;0.00;;;0.00;;
61399;SDS011;47269;48.182;-1.946;2024-01-30T11:14:12;0.03;;;0.03;;
61399;SDS011;47269;48.182;-1.946;2024-01-30T11:16:39;0.00;;;0.00;;
61399;SDS011;47269;48.182;-1.946;2024-01-30T11:19:07;0.20;;;0.20;;
61399;SDS011;47269;48.182;-1.946;2024-01-30T11:21:42;0.00;;;0.00;;
61399;SDS011;47269;48.182;-1.946;2024-01-30T11:24:08;0.22;;;0.22;;
61399;SDS011;47269;48.182;-1.946;2024-01-30T11:26:34;0.00;;;0.00;;
61399;SDS011;47269;48.182;-1.946;2024-01-30T11:29:04;0.40;;;0.40;;
61399;SDS011;47269;48.182;-1.946;2024-01-30T11:31:33;0.52;;;0.40;;
61399;SDS011;47269;48.182;-1.946;2024-01-30T11:33:59;0.00;;;0.00;;
61399;SDS011;47269;48.182;-1.946;2024-01-30T11:36:25;1.00;;;0.52;;
61399;SDS011;47269;48.182;-1.946;2024-01-30T11:38:52;1.15;;;1.15;;
61399;SDS011;47269;48.182;-1.946;2024-01-30T11:41:18;0.00;;;0.00;;
61399;SDS011;47269;48.182;-1.946;2024-01-30T11:43:51;0.00;;;0.00;;
61399;SDS011;47269;48.182;-1.946;2024-01-30T11:46:17;0.00;;;0.00;;
61399;SDS011;47269;48.182;-1.946;2024-01-30T11:48:43;0.45;;;0.45;;
61399;SDS011;47269;48.182;-1.946;2024-01-30T11:51:09;0.17;;;0.17;;
61399;SDS011;47269;48.182;-1.946;2024-01-30T11:53:37;0.00;;;0.00;;
61399;SDS011;47269;48.182;-1.946;2024-01-30T11:56:05;0.00;;;0.00;;
61399;SDS011;47269;48.182;-1.946;2024-01-30T11:58:32;0.00;;;0.00;;
61399;SDS011;47269;48.182;-1.946;2024-01-30T12:00:58;0.00;;;0.00;;
61399;SDS011;47269;48.182;-1.946;2024-01-30T12:03:24;0.00;;;0.00;;
61399;SDS011;47269;48.182;-1.946;2024-01-30T12:05:57;0.00;;;0.00;;
61399;SDS011;47269;48.182;-1.946;2024-01-30T12:08:23;0.08;;;0.08;;
61399;SDS011;47269;48.182;-1.946;2024-01-30T12:10:56;0.00;;;0.00;;
61399;SDS011;47269;48.182;-1.946;2024-01-30T12:13:23;0.00;;;0.00;;
61399;SDS011;47269;48.182;-1.946;2024-01-30T12:15:49;0.20;;;0.20;;
61399;SDS011;47269;48.182;-1.946;2024-01-30T12:18:18;0.00;;;0.00;;
61399;SDS011;47269;48.182;-1.946;2024-01-30T12:20:45;0.00;;;0.00;;
61399;SDS011;47269;48.182;-1.946;2024-01-30T12:23:14;0.08;;;0.08;;
61399;SDS011;47269;48.182;-1.946;2024-01-30T12:25:40;0.22;;;0.17;;
61399;SDS011;47269;48.182;-1.946;2024-01-30T12:28:06;0.00;;;0.00;;
61399;SDS011;47269;48.182;-1.946;2024-01-30T12:30:32;0.00;;;0.00;;
61399;SDS011;47269;48.182;-1.946;2024-01-30T12:33:01;0.00;;;0.00;;
61399;SDS011;47269;48.182;-1.946;2024-01-30T12:35:31;0.00;;;0.00;;
61399;SDS011;47269;48.182;-1.946;2024-01-30T12:37:57;0.00;;;0.00;;
61399;SDS011;47269;48.182;-1.946;2024-01-30T12:40:23;0.73;;;0.73;;
61399;SDS011;47269;48.182;-1.946;2024-01-30T12:42:51;0.00;;;0.00;;
61399;SDS011;47269;48.182;-1.946;2024-01-30T12:45:17;0.00;;;0.00;;
61399;SDS011;47269;48.182;-1.946;2024-01-30T12:47:47;0.00;;;0.00;;
61399;SDS011;47269;48.182;-1.946;2024-01-30T12:50:13;0.00;;;0.00;;
61399;SDS011;47269;48.182;-1.946;2024-01-30T12:52:41;0.00;;;0.00;;
61399;SDS011;47269;48.182;-1.946;2024-01-30T12:55:07;0.00;;;0.00;;
61399;SDS011;47269;48.182;-1.946;2024-01-30T12:57:33;0.20;;;0.20;;
61399;SDS011;47269;48.182;-1.946;2024-01-30T12:59:59;0.10;;;0.10;;
61399;SDS011;47269;48.182;-1.946;2024-01-30T13:02:25;0.00;;;0.00;;
61399;SDS011;47269;48.182;-1.946;2024-01-30T13:04:55;0.00;;;0.00;;
61399;SDS011;47269;48.182;-1.946;2024-01-30T13:07:21;0.00;;;0.00;;
61399;SDS011;47269;48.182;-1.946;2024-01-30T13:09:47;0.00;;;0.00;;
61399;SDS011;47269;48.182;-1.946;2024-01-30T13:12:13;0.00;;;0.00;;
61399;SDS011;47269;48.182;-1.946;2024-01-30T13:14:39;0.00;;;0.00;;
61399;SDS011;47269;48.182;-1.946;2024-01-30T13:17:05;0.00;;;0.00;;
61399;SDS011;47269;48.182;-1.946;2024-01-30T13:19:31;0.00;;;0.00;;
61399;SDS011;47269;48.182;-1.946;2024-01-30T13:21:57;0.00;;;0.00;;
61399;SDS011;47269;48.182;-1.946;2024-01-30T13:24:23;0.05;;;0.05;;
61399;SDS011;47269;48.182;-1.946;2024-01-30T13:26:49;0.00;;;0.00;;
61399;SDS011;47269;48.182;-1.946;2024-01-30T13:29:15;4.10;;;0.68;;
61399;SDS011;47269;48.182;-1.946;2024-01-30T13:31:41;10.88;;;1.55;;
61399;SDS011;47269;48.182;-1.946;2024-01-30T13:34:09;0.20;;;0.20;;
61399;SDS011;47269;48.182;-1.946;2024-01-30T13:36:35;0.00;;;0.00;;
61399;SDS011;47269;48.182;-1.946;2024-01-30T13:39:01;0.00;;;0.00;;
61399;SDS011;47269;48.182;-1.946;2024-01-30T13:41:27;0.65;;;0.30;;
61399;SDS011;47269;48.182;-1.946;2024-01-30T13:43:55;0.35;;;0.30;;
61399;SDS011;47269;48.182;-1.946;2024-01-30T13:46:21;0.00;;;0.00;;
61399;SDS011;47269;48.182;-1.946;2024-01-30T13:48:47;0.43;;;0.43;;
61399;SDS011;47269;48.182;-1.946;2024-01-30T13:51:13;0.45;;;0.20;;
61399;SDS011;47269;48.182;-1.946;2024-01-30T13:53:39;0.00;;;0.00;;
61399;SDS011;47269;48.182;-1.946;2024-01-30T13:56:05;0.32;;;0.32;;
61399;SDS011;47269;48.182;-1.946;2024-01-30T13:58:32;0.00;;;0.00;;
61399;SDS011;47269;48.182;-1.946;2024-01-30T14:00:58;0.00;;;0.00;;
61399;SDS011;47269;48.182;-1.946;2024-01-30T14:03:24;3.45;;;1.90;;
61399;SDS011;47269;48.182;-1.946;2024-01-30T14:05:50;0.00;;;0.00;;
61399;SDS011;47269;48.182;-1.946;2024-01-30T14:08:16;7.80;;;6.05;;
61399;SDS011;47269;48.182;-1.946;2024-01-30T14:10:43;22.25;;;11.93;;
61399;SDS011;47269;48.182;-1.946;2024-01-30T14:13:09;40.25;;;24.17;;
61399;SDS011;47269;48.182;-1.946;2024-01-30T14:15:36;28.35;;;19.65;;
61399;SDS011;47269;48.182;-1.946;2024-01-30T14:18:02;33.88;;;20.77;;
61399;SDS011;47269;48.182;-1.946;2024-01-30T14:20:28;20.25;;;9.27;;
61399;SDS011;47269;48.182;-1.946;2024-01-30T14:22:55;102.25;;;56.78;;
61399;SDS011;47269;48.182;-1.946;2024-01-30T14:25:22;69.70;;;34.38;;
61399;SDS011;47269;48.182;-1.946;2024-01-30T14:27:48;7.70;;;4.68;;
61399;SDS011;47269;48.182;-1.946;2024-01-30T14:30:14;11.50;;;9.85;;
61399;SDS011;47269;48.182;-1.946;2024-01-30T14:32:40;4.13;;;3.75;;
61399;SDS011;47269;48.182;-1.946;2024-01-30T14:35:07;3.30;;;3.08;;
61399;SDS011;47269;48.182;-1.946;2024-01-30T14:37:34;0.85;;;0.45;;
61399;SDS011;47269;48.182;-1.946;2024-01-30T14:40:00;0.20;;;0.10;;
61399;SDS011;47269;48.182;-1.946;2024-01-30T14:42:26;2.42;;;1.42;;
61399;SDS011;47269;48.182;-1.946;2024-01-30T14:44:56;2.80;;;1.52;;
61399;SDS011;47269;48.182;-1.946;2024-01-30T14:47:22;0.00;;;0.00;;
61399;SDS011;47269;48.182;-1.946;2024-01-30T14:49:48;0.00;;;0.00;;
61399;SDS011;47269;48.182;-1.946;2024-01-30T14:52:14;0.00;;;0.00;;
61399;SDS011;47269;48.182;-1.946;2024-01-30T14:54:40;1.13;;;0.55;;
61399;SDS011;47269;48.182;-1.946;2024-01-30T14:57:06;0.30;;;0.20;;
61399;SDS011;47269;48.182;-1.946;2024-01-30T14:59:33;0.40;;;0.40;;
61399;SDS011;47269;48.182;-1.946;2024-01-30T15:01:59;2.80;;;0.98;;
61399;SDS011;47269;48.182;-1.946;2024-01-30T15:04:26;0.80;;;0.80;;
61399;SDS011;47269;48.182;-1.946;2024-01-30T15:06:53;2.53;;;2.08;;
61399;SDS011;47269;48.182;-1.946;2024-01-30T15:09:19;2.70;;;2.47;;
61399;SDS011;47269;48.182;-1.946;2024-01-30T15:11:47;0.80;;;0.73;;
61399;SDS011;47269;48.182;-1.946;2024-01-30T15:14:14;0.08;;;0.08;;
61399;SDS011;47269;48.182;-1.946;2024-01-30T15:16:40;1.05;;;0.25;;
61399;SDS011;47269;48.182;-1.946;2024-01-30T15:19:06;0.10;;;0.10;;
61399;SDS011;47269;48.182;-1.946;2024-01-30T15:21:32;0.00;;;0.00;;
61399;SDS011;47269;48.182;-1.946;2024-01-30T15:23:58;0.00;;;0.00;;
61399;SDS011;47269;48.182;-1.946;2024-01-30T15:26:24;0.17;;;0.17;;
61399;SDS011;47269;48.182;-1.946;2024-01-30T15:28:51;0.40;;;0.40;;
61399;SDS011;47269;48.182;-1.946;2024-01-30T15:31:17;1.10;;;1.10;;
61399;SDS011;47269;48.182;-1.946;2024-01-30T15:33:43;0.00;;;0.00;;
61399;SDS011;47269;48.182;-1.946;2024-01-30T15:36:10;0.88;;;0.88;;
61399;SDS011;47269;48.182;-1.946;2024-01-30T15:38:38;0.00;;;0.00;;
61399;SDS011;47269;48.182;-1.946;2024-01-30T15:41:04;1.50;;;0.93;;
61399;SDS011;47269;48.182;-1.946;2024-01-30T15:43:30;0.10;;;0.10;;
61399;SDS011;47269;48.182;-1.946;2024-01-30T15:45:57;0.32;;;0.32;;
61399;SDS011;47269;48.182;-1.946;2024-01-30T15:48:24;4.47;;;3.95;;
61399;SDS011;47269;48.182;-1.946;2024-01-30T15:50:50;8.27;;;2.55;;
61399;SDS011;47269;48.182;-1.946;2024-01-30T15:53:16;0.35;;;0.35;;
61399;SDS011;47269;48.182;-1.946;2024-01-30T15:55:43;4.85;;;1.00;;
61399;SDS011;47269;48.182;-1.946;2024-01-30T15:58:09;0.10;;;0.10;;
61399;SDS011;47269;48.182;-1.946;2024-01-30T16:00:35;0.00;;;0.00;;
61399;SDS011;47269;48.182;-1.946;2024-01-30T16:03:01;0.20;;;0.20;;
61399;SDS011;47269;48.182;-1.946;2024-01-30T16:05:27;0.88;;;0.77;;
61399;SDS011;47269;48.182;-1.946;2024-01-30T16:07:53;0.15;;;0.15;;
61399;SDS011;47269;48.182;-1.946;2024-01-30T16:10:19;0.10;;;0.10;;
61399;SDS011;47269;48.182;-1.946;2024-01-30T16:12:45;0.50;;;0.50;;
61399;SDS011;47269;48.182;-1.946;2024-01-30T16:15:12;3.97;;;3.65;;
61399;SDS011;47269;48.182;-1.946;2024-01-30T16:17:38;0.13;;;0.13;;
61399;SDS011;47269;48.182;-1.946;2024-01-30T16:20:04;0.52;;;0.52;;
61399;SDS011;47269;48.182;-1.946;2024-01-30T16:22:30;0.00;;;0.00;;
61399;SDS011;47269;48.182;-1.946;2024-01-30T16:24:56;0.00;;;0.00;;
61399;SDS011;47269;48.182;-1.946;2024-01-30T16:27:22;0.00;;;0.00;;
61399;SDS011;47269;48.182;-1.946;2024-01-30T16:29:48;0.00;;;0.00;;
61399;SDS011;47269;48.182;-1.946;2024-01-30T16:32:14;0.00;;;0.00;;
61399;SDS011;47269;48.182;-1.946;2024-01-30T16:34:41;0.22;;;0.22;;
61399;SDS011;47269;48.182;-1.946;2024-01-30T16:37:07;9.95;;;7.63;;
61399;SDS011;47269;48.182;-1.946;2024-01-30T16:39:33;0.20;;;0.20;;
61399;SDS011;47269;48.182;-1.946;2024-01-30T16:41:59;0.30;;;0.30;;
61399;SDS011;47269;48.182;-1.946;2024-01-30T16:44:25;0.30;;;0.30;;
61399;SDS011;47269;48.182;-1.946;2024-01-30T16:46:51;0.57;;;0.38;;
61399;SDS011;47269;48.182;-1.946;2024-01-30T16:49:17;0.00;;;0.00;;
61399;SDS011;47269;48.182;-1.946;2024-01-30T16:51:43;0.00;;;0.00;;
61399;SDS011;47269;48.182;-1.946;2024-01-30T16:54:09;1.25;;;0.55;;
61399;SDS011;47269;48.182;-1.946;2024-01-30T16:56:35;0.22;;;0.22;;
61399;SDS011;47269;48.182;-1.946;2024-01-30T16:59:01;0.47;;;0.47;;
61399;SDS011;47269;48.182;-1.946;2024-01-30T17:01:27;5.07;;;4.38;;
61399;SDS011;47269;48.182;-1.946;2024-01-30T17:03:53;4.13;;;2.38;;
61399;SDS011;47269;48.182;-1.946;2024-01-30T17:06:19;3.78;;;3.47;;
61399;SDS011;47269;48.182;-1.946;2024-01-30T17:08:45;0.52;;;0.30;;
61399;SDS011;47269;48.182;-1.946;2024-01-30T17:11:11;2.28;;;2.13;;
61399;SDS011;47269;48.182;-1.946;2024-01-30T17:13:37;1.27;;;1.17;;
61399;SDS011;47269;48.182;-1.946;2024-01-30T17:16:03;0.10;;;0.10;;
61399;SDS011;47269;48.182;-1.946;2024-01-30T17:18:32;4.18;;;1.25;;
61399;SDS011;47269;48.182;-1.946;2024-01-30T17:20:58;1.48;;;1.38;;
61399;SDS011;47269;48.182;-1.946;2024-01-30T17:23:24;0.00;;;0.00;;
61399;SDS011;47269;48.182;-1.946;2024-01-30T17:25:51;1.42;;;1.40;;
61399;SDS011;47269;48.182;-1.946;2024-01-30T17:28:17;0.13;;;0.13;;
61399;SDS011;47269;48.182;-1.946;2024-01-30T17:30:43;0.90;;;0.90;;
61399;SDS011;47269;48.182;-1.946;2024-01-30T17:33:09;0.00;;;0.00;;
61399;SDS011;47269;48.182;-1.946;2024-01-30T17:35:35;1.90;;;1.17;;
61399;SDS011;47269;48.182;-1.946;2024-01-30T17:38:01;0.00;;;0.00;;
61399;SDS011;47269;48.182;-1.946;2024-01-30T17:40:27;1.98;;;1.88;;
61399;SDS011;47269;48.182;-1.946;2024-01-30T17:42:53;0.05;;;0.05;;
61399;SDS011;47269;48.182;-1.946;2024-01-30T17:45:20;0.40;;;0.40;;
61399;SDS011;47269;48.182;-1.946;2024-01-30T17:47:46;0.00;;;0.00;;
61399;SDS011;47269;48.182;-1.946;2024-01-30T17:50:12;1.10;;;0.55;;
61399;SDS011;47269;48.182;-1.946;2024-01-30T17:52:38;0.10;;;0.10;;
61399;SDS011;47269;48.182;-1.946;2024-01-30T17:55:04;0.00;;;0.00;;
61399;SDS011;47269;48.182;-1.946;2024-01-30T17:57:30;1.63;;;1.20;;
61399;SDS011;47269;48.182;-1.946;2024-01-30T17:59:56;1.30;;;1.27;;
61399;SDS011;47269;48.182;-1.946;2024-01-30T18:02:22;1.40;;;1.30;;
61399;SDS011;47269;48.182;-1.946;2024-01-30T18:04:48;1.73;;;1.63;;
61399;SDS011;47269;48.182;-1.946;2024-01-30T18:07:14;1.90;;;1.73;;
61399;SDS011;47269;48.182;-1.946;2024-01-30T18:09:40;3.53;;;3.33;;
61399;SDS011;47269;48.182;-1.946;2024-01-30T18:12:06;1.55;;;1.50;;
61399;SDS011;47269;48.182;-1.946;2024-01-30T18:14:35;0.47;;;0.47;;
61399;SDS011;47269;48.182;-1.946;2024-01-30T18:17:01;1.05;;;1.05;;
61399;SDS011;47269;48.182;-1.946;2024-01-30T18:19:27;3.92;;;1.38;;
61399;SDS011;47269;48.182;-1.946;2024-01-30T18:21:53;3.63;;;3.30;;
61399;SDS011;47269;48.182;-1.946;2024-01-30T18:24:19;0.70;;;0.70;;
61399;SDS011;47269;48.182;-1.946;2024-01-30T18:26:46;0.68;;;0.68;;
61399;SDS011;47269;48.182;-1.946;2024-01-30T18:29:12;4.35;;;4.03;;
61399;SDS011;47269;48.182;-1.946;2024-01-30T18:31:38;5.70;;;5.30;;
61399;SDS011;47269;48.182;-1.946;2024-01-30T18:34:07;1.60;;;1.23;;
61399;SDS011;47269;48.182;-1.946;2024-01-30T18:36:33;7.03;;;4.82;;
61399;SDS011;47269;48.182;-1.946;2024-01-30T18:39:01;10.25;;;4.22;;
61399;SDS011;47269;48.182;-1.946;2024-01-30T18:41:29;4.90;;;4.45;;
61399;SDS011;47269;48.182;-1.946;2024-01-30T18:43:56;4.70;;;3.63;;
61399;SDS011;47269;48.182;-1.946;2024-01-30T18:46:23;2.53;;;2.28;;
61399;SDS011;47269;48.182;-1.946;2024-01-30T18:48:49;0.10;;;0.10;;
61399;SDS011;47269;48.182;-1.946;2024-01-30T18:51:15;3.13;;;2.05;;
61399;SDS011;47269;48.182;-1.946;2024-01-30T18:53:42;0.57;;;0.57;;
61399;SDS011;47269;48.182;-1.946;2024-01-30T18:56:08;5.15;;;1.27;;
61399;SDS011;47269;48.182;-1.946;2024-01-30T18:58:34;1.15;;;0.80;;
61399;SDS011;47269;48.182;-1.946;2024-01-30T19:01:00;1.95;;;1.67;;
61399;SDS011;47269;48.182;-1.946;2024-01-30T19:03:26;3.05;;;2.42;;
61399;SDS011;47269;48.182;-1.946;2024-01-30T19:05:54;0.73;;;0.73;;
61399;SDS011;47269;48.182;-1.946;2024-01-30T19:08:20;2.13;;;0.88;;
61399;SDS011;47269;48.182;-1.946;2024-01-30T19:10:46;1.88;;;1.77;;
61399;SDS011;47269;48.182;-1.946;2024-01-30T19:13:14;0.65;;;0.65;;
61399;SDS011;47269;48.182;-1.946;2024-01-30T19:15:41;0.80;;;0.80;;
61399;SDS011;47269;48.182;-1.946;2024-01-30T19:18:08;1.02;;;1.02;;
61399;SDS011;47269;48.182;-1.946;2024-01-30T19:20:34;2.88;;;2.00;;
61399;SDS011;47269;48.182;-1.946;2024-01-30T19:23:01;0.95;;;0.95;;
61399;SDS011;47269;48.182;-1.946;2024-01-30T19:25:27;5.00;;;1.88;;
61399;SDS011;47269;48.182;-1.946;2024-01-30T19:27:54;1.35;;;1.27;;
61399;SDS011;47269;48.182;-1.946;2024-01-30T19:30:24;0.93;;;0.93;;
61399;SDS011;47269;48.182;-1.946;2024-01-30T19:32:50;6.22;;;5.15;;
61399;SDS011;47269;48.182;-1.946;2024-01-30T19:35:16;0.65;;;0.65;;
61399;SDS011;47269;48.182;-1.946;2024-01-30T19:37:42;1.52;;;1.48;;
61399;SDS011;47269;48.182;-1.946;2024-01-30T19:40:08;2.20;;;2.10;;
61399;SDS011;47269;48.182;-1.946;2024-01-30T19:42:35;4.28;;;3.40;;
61399;SDS011;47269;48.182;-1.946;2024-01-30T19:45:02;2.22;;;2.13;;
61399;SDS011;47269;48.182;-1.946;2024-01-30T19:47:28;1.00;;;1.00;;
61399;SDS011;47269;48.182;-1.946;2024-01-30T19:49:54;2.45;;;2.08;;
61399;SDS011;47269;48.182;-1.946;2024-01-30T19:52:20;2.45;;;1.92;;
61399;SDS011;47269;48.182;-1.946;2024-01-30T19:54:46;2.80;;;2.70;;
61399;SDS011;47269;48.182;-1.946;2024-01-30T19:57:12;2.10;;;2.05;;
61399;SDS011;47269;48.182;-1.946;2024-01-30T19:59:38;3.63;;;2.78;;
61399;SDS011;47269;48.182;-1.946;2024-01-30T20:02:05;1.23;;;1.23;;
61399;SDS011;47269;48.182;-1.946;2024-01-30T20:04:31;1.15;;;1.15;;
61399;SDS011;47269;48.182;-1.946;2024-01-30T20:06:59;1.95;;;1.85;;
61399;SDS011;47269;48.182;-1.946;2024-01-30T20:09:25;0.30;;;0.30;;
61399;SDS011;47269;48.182;-1.946;2024-01-30T20:11:51;1.92;;;1.55;;
61399;SDS011;47269;48.182;-1.946;2024-01-30T20:14:17;2.75;;;2.65;;
61399;SDS011;47269;48.182;-1.946;2024-01-30T20:16:43;2.65;;;2.50;;
61399;SDS011;47269;48.182;-1.946;2024-01-30T20:19:09;4.43;;;4.15;;
61399;SDS011;47269;48.182;-1.946;2024-01-30T20:21:36;5.10;;;1.30;;
61399;SDS011;47269;48.182;-1.946;2024-01-30T20:24:02;1.02;;;1.02;;
61399;SDS011;47269;48.182;-1.946;2024-01-30T20:26:28;2.15;;;2.05;;
61399;SDS011;47269;48.182;-1.946;2024-01-30T20:28:54;0.40;;;0.40;;